Time;durP1;ratioP1;P1;durP2;ratioP2;P2;SDS_P1;SDS_P2;PMS_P1;PMS_P2;Temp;Humidity;BMP_temperature;BMP_pressure;BME280_temperature;BME280_humidity;BME280_pressure;Samples;Min_cycle;Max_cycle;Signal;HPM_P1;HPM_P2
2022/05/30 00:01:18;;;;;;;5.97;3.25;;;;;;;10.50;100.00;100880.23;1746797;82;20936;-44
2022/05/30 00:03:45;;;;;;;8.75;3.37;;;;;;;10.51;100.00;100878.48;1746824;82;20872;-44
2022/05/30 00:06:15;;;;;;;5.55;3.70;;;;;;;10.49;100.00;100879.36;1746794;82;21126;-44
2022/05/30 00:08:43;;;;;;;9.70;4.62;;;;;;;10.45;100.00;100883.29;1746547;82;21494;-44
2022/05/30 00:11:13;;;;;;;6.80;4.15;;;;;;;10.41;100.00;100881.61;1746728;82;21018;-44
2022/05/30 00:13:41;;;;;;;8.20;3.72;;;;;;;10.35;100.00;100884.66;1746865;82;21535;-44
2022/05/30 00:16:13;;;;;;;4.78;4.22;;;;;;;10.31;100.00;100897.22;1746725;82;20985;-44
2022/05/30 00:18:41;;;;;;;9.38;4.17;;;;;;;10.27;100.00;100894.24;1746761;82;21510;-44
2022/05/30 00:21:09;;;;;;;7.12;4.87;;;;;;;10.26;100.00;100890.36;1746757;82;20936;-42
2022/05/30 00:23:35;;;;;;;6.17;3.77;;;;;;;10.23;100.00;100895.16;1746823;81;20878;-42
2022/05/30 00:26:06;;;;;;;5.75;3.62;;;;;;;10.23;100.00;100893.86;1746763;82;21291;-41
2022/05/30 00:28:35;;;;;;;9.63;4.00;;;;;;;10.25;100.00;100892.53;1746636;82;21028;-44
2022/05/30 00:31:02;;;;;;;4.53;3.52;;;;;;;10.24;100.00;100903.33;1746808;82;21117;-44
2022/05/30 00:33:29;;;;;;;4.80;3.55;;;;;;;10.22;100.00;100903.76;1746630;80;20937;-45
2022/05/30 00:35:56;;;;;;;12.03;4.37;;;;;;;10.19;100.00;100906.38;1746806;82;20916;-45
2022/05/30 00:38:23;;;;;;;14.20;5.92;;;;;;;10.17;100.00;100905.53;1746771;81;20932;-45
2022/05/30 00:40:50;;;;;;;7.62;4.58;;;;;;;10.13;100.00;100901.27;1748714;80;21528;-44
2022/05/30 00:43:28;;;;;;;5.15;3.50;;;;;;;10.10;100.00;100903.89;1722010;82;22113;-45
2022/05/30 00:45:57;;;;;;;7.12;3.85;;;;;;;10.06;100.00;100900.46;1749249;82;20947;-44
2022/05/30 00:48:31;;;;;;;10.72;3.72;;;;;;;10.03;100.00;100900.08;1749371;82;20924;-44
2022/05/30 00:51:05;;;;;;;5.10;3.65;;;;;;;10.02;100.00;100900.08;1749515;82;21564;-45
2022/05/30 00:53:33;;;;;;;4.05;3.40;;;;;;;10.00;100.00;100898.81;1749260;82;21467;-44
2022/05/30 00:56:02;;;;;;;5.85;3.70;;;;;;;10.00;100.00;100894.06;1749451;82;21269;-44
2022/05/30 00:58:31;;;;;;;5.58;3.92;;;;;;;10.01;100.00;100890.59;1749246;82;20980;-44
2022/05/30 01:00:59;;;;;;;10.53;4.40;;;;;;;9.99;100.00;100891.92;1749621;82;20971;-44
2022/05/30 01:06:30;;;;;;;10.40;4.72;;;;;;;9.98;100.00;100898.39;1749736;82;24171;-45
2022/05/30 01:09:00;;;;;;;12.68;4.40;;;;;;;9.92;100.00;100900.16;1726780;82;21260;-44
2022/05/30 01:11:27;;;;;;;7.55;4.35;;;;;;;9.92;100.00;100892.41;1749430;82;21486;-44
2022/05/30 01:13:54;;;;;;;13.03;5.00;;;;;;;9.94;100.00;100880.73;1749557;82;20842;-44
2022/05/30 01:16:22;;;;;;;16.40;5.10;;;;;;;9.96;100.00;100876.41;1749611;82;20936;-44
2022/05/30 01:18:54;;;;;;;10.03;4.28;;;;;;;9.96;100.00;100872.53;1749549;82;21663;-45
2022/05/30 01:21:35;;;;;;;12.68;4.70;;;;;;;9.97;100.00;100865.19;1749471;82;21150;-45
2022/05/30 01:24:24;;;;;;;14.53;5.37;;;;;;;9.94;100.00;100849.70;1749504;82;22342;-44
2022/05/30 01:27:33;;;;;;;13.32;5.12;;;;;;;9.92;100.00;100843.27;1749848;82;21197;-45
2022/05/30 01:30:08;;;;;;;17.40;5.20;;;;;;;9.93;100.00;100836.36;1749594;82;20959;-44
2022/05/30 01:32:35;;;;;;;14.33;4.35;;;;;;;9.91;100.00;100842.85;1721930;82;20889;-45
2022/05/30 01:35:04;;;;;;;14.23;4.83;;;;;;;9.88;100.00;100839.01;1749626;82;21130;-44
2022/05/30 01:37:32;;;;;;;9.53;3.98;;;;;;;9.87;100.00;100833.84;1749203;82;20979;-45
2022/05/30 01:40:00;;;;;;;9.38;4.55;;;;;;;9.86;100.00;100825.66;1748491;80;20952;-45
2022/05/30 01:42:27;;;;;;;13.10;5.00;;;;;;;9.87;100.00;100819.61;1746881;80;20941;-45
2022/05/30 01:44:54;;;;;;;12.78;4.33;;;;;;;9.87;100.00;100810.14;1746904;80;22173;-44
2022/05/30 01:47:22;;;;;;;4.35;3.95;;;;;;;9.89;100.00;100801.06;1746920;80;21200;-44
2022/05/30 01:49:49;;;;;;;7.15;4.35;;;;;;;9.94;100.00;100797.14;1746748;82;20924;-44
2022/05/30 01:52:17;;;;;;;8.95;4.42;;;;;;;9.99;100.00;100793.65;1725726;82;20952;-44
2022/05/30 01:54:44;;;;;;;7.62;4.20;;;;;;;10.03;100.00;100786.27;1746835;82;21399;-44
2022/05/30 01:57:17;;;;;;;7.72;4.83;;;;;;;10.05;100.00;100780.64;1746758;81;20956;-45
2022/05/30 01:59:46;;;;;;;11.15;4.20;;;;;;;10.08;100.00;100787.95;1744053;82;22176;-45
2022/05/30 02:02:24;;;;;;;10.10;4.53;;;;;;;10.13;100.00;100792.63;1724765;82;20845;-44
2022/05/30 02:04:53;;;;;;;5.42;3.98;;;;;;;10.18;100.00;100794.30;1746886;82;20881;-45
2022/05/30 02:07:21;;;;;;;9.75;4.40;;;;;;;10.22;100.00;100782.16;1746722;82;20944;-45
2022/05/30 02:09:49;;;;;;;7.05;4.67;;;;;;;10.24;100.00;100777.85;1746989;82;20897;-44
2022/05/30 02:12:16;;;;;;;15.48;8.18;;;;;;;10.27;100.00;100794.62;1746833;82;21132;-44
2022/05/30 02:14:51;;;;;;;15.05;10.28;;;;;;;10.30;100.00;100813.13;1745915;82;21577;-44
2022/05/30 02:17:18;;;;;;;15.90;8.85;;;;;;;10.31;100.00;100829.06;1746952;82;21565;-44
2022/05/30 02:19:45;;;;;;;10.20;6.10;;;;;;;10.33;100.00;100838.54;1746792;81;20969;-44
2022/05/30 02:22:22;;;;;;;76.75;45.43;;;;;;;10.39;100.00;100846.68;1746840;82;20971;-44
2022/05/30 02:24:49;;;;;;;7.03;4.50;;;;;;;10.45;100.00;100845.34;1746910;80;21067;-44
2022/05/30 02:27:17;;;;;;;16.17;8.53;;;;;;;10.56;100.00;100859.88;1746858;82;20901;-44
2022/05/30 02:29:45;;;;;;;7.40;4.05;;;;;;;10.63;100.00;100861.53;1746804;82;20873;-44
2022/05/30 02:32:15;;;;;;;8.48;4.33;;;;;;;10.72;100.00;100860.53;1746740;82;20869;-44
2022/05/30 02:37:28;;;;;;;11.40;4.60;;;;;;;10.84;100.00;100877.66;1747006;82;21292;-44
2022/05/30 02:39:57;;;;;;;5.62;4.37;;;;;;;10.91;100.00;100876.27;1747315;81;21133;-44
2022/05/30 02:42:44;;;;;;;4.10;3.80;;;;;;;10.97;100.00;100870.16;1749556;82;20924;-44
2022/05/30 02:45:13;;;;;;;10.85;3.90;;;;;;;11.02;100.00;100868.35;1749703;82;20909;-44
2022/05/30 02:47:41;;;;;;;6.65;4.10;;;;;;;11.09;100.00;100864.37;1749314;82;21490;-44
2022/05/30 02:50:10;;;;;;;9.35;3.90;;;;;;;11.10;100.00;100863.07;1749398;82;21047;-44
2022/05/30 02:52:38;;;;;;;7.08;3.75;;;;;;;11.10;100.00;100860.91;1749360;82;20968;-44
2022/05/30 02:55:07;;;;;;;4.70;4.03;;;;;;;11.09;100.00;100869.55;1721958;82;21570;-44
2022/05/30 02:57:41;;;;;;;;;;;;;;;11.08;100.00;100875.19;1750520;82;20968;-44
2022/05/30 03:00:09;;;;;;;4.28;3.92;;;;;;;11.12;100.00;100870.38;1749462;81;20644;-44
2022/05/30 03:02:38;;;;;;;5.35;4.22;;;;;;;11.19;100.00;100868.11;1749255;81;22044;-45
2022/05/30 03:05:07;;;;;;;6.62;4.30;;;;;;;11.22;100.00;100858.16;1749331;82;20972;-44
2022/05/30 03:07:35;;;;;;;4.95;3.67;;;;;;;11.21;100.00;100854.69;1749628;82;21421;-44
2022/05/30 03:10:05;;;;;;;6.17;3.35;;;;;;;11.24;100.00;100858.11;1722992;82;21403;-44
2022/05/30 03:12:37;;;;;;;7.80;3.98;;;;;;;11.26;100.00;100855.09;1741722;82;21510;-44
2022/05/30 03:15:05;;;;;;;5.75;3.70;;;;;;;11.30;100.00;100852.41;1749578;82;21137;-44
2022/05/30 03:17:32;;;;;;;6.60;4.15;;;;;;;11.34;100.00;100855.81;1746725;81;21379;-45
2022/05/30 03:19:59;;;;;;;4.75;3.87;;;;;;;11.38;100.00;100854.05;1749458;82;20928;-44
2022/05/30 03:22:26;;;;;;;8.60;3.70;;;;;;;11.41;100.00;100854.84;1749453;82;20960;-44
2022/05/30 03:25:11;;;;;;;7.17;3.87;;;;;;;11.45;100.00;100851.31;1749659;82;21434;-44
2022/05/30 03:27:39;;;;;;;6.30;3.60;;;;;;;11.46;100.00;100839.22;1749510;81;21254;-44
2022/05/30 03:30:07;;;;;;;6.17;4.08;;;;;;;11.52;100.00;100844.75;1749397;82;20873;-44
2022/05/30 03:32:35;;;;;;;7.58;3.95;;;;;;;11.53;100.00;100842.58;1749299;82;21455;-43
2022/05/30 03:35:02;;;;;;;7.62;4.12;;;;;;;11.52;100.00;100837.81;1749283;82;20924;-43
2022/05/30 03:37:30;;;;;;;7.90;4.20;;;;;;;11.58;100.00;100840.76;1749539;82;20984;-43
2022/05/30 03:39:59;;;;;;;7.92;4.33;;;;;;;11.62;100.00;100841.98;1744300;80;20998;-43
2022/05/30 03:42:45;;;;;;;10.28;4.17;;;;;;;11.70;100.00;100837.94;1749594;82;20928;-43
2022/05/30 03:45:19;;;;;;;8.58;4.58;;;;;;;11.86;100.00;100837.69;1748710;82;20995;-43
2022/05/30 03:47:47;;;;;;;8.78;4.00;;;;;;;11.97;100.00;100840.94;1749171;80;20928;-43
2022/05/30 03:50:19;;;;;;;19.62;4.95;;;;;;;12.11;100.00;100835.98;1749496;82;21533;-43
2022/05/30 03:52:46;;;;;;;10.90;4.65;;;;;;;12.26;100.00;100838.30;1749226;81;21315;-43
2022/05/30 03:55:16;;;;;;;7.42;4.40;;;;;;;12.45;100.00;100834.02;1749374;82;20936;-43
2022/05/30 03:57:43;;;;;;;9.65;4.50;;;;;;;12.63;100.00;100824.98;1749419;81;20932;-43
2022/05/30 04:00:20;;;;;;;11.08;4.87;;;;;;;12.75;100.00;100816.94;1749522;82;20885;-43
2022/05/30 04:02:48;;;;;;;7.92;4.80;;;;;;;12.87;100.00;100825.34;1749403;82;20975;-43
2022/05/30 04:05:17;;;;;;;13.05;4.37;;;;;;;12.93;100.00;100823.47;1749348;82;21213;-43
2022/05/30 04:07:44;;;;;;;19.37;5.72;;;;;;;12.97;100.00;100821.67;1749202;82;20847;-44
2022/05/30 04:10:22;;;;;;;18.87;5.25;;;;;;;13.00;100.00;100836.31;1732152;82;20984;-44
2022/05/30 04:13:06;;;;;;;16.65;5.65;;;;;;;13.06;100.00;100838.34;1659604;84;21043;-44
2022/05/30 04:15:53;;;;;;;20.05;6.40;;;;;;;13.10;100.00;100831.34;1749316;82;21447;-44
2022/05/30 04:18:20;;;;;;;21.70;6.65;;;;;;;13.12;100.00;100829.98;1722092;82;21250;-44
2022/05/30 04:20:47;;;;;;;13.95;5.00;;;;;;;13.15;100.00;100839.88;1749362;82;20956;-44
2022/05/30 04:23:15;;;;;;;16.07;5.37;;;;;;;13.21;100.00;100841.49;1749324;82;20959;-44
2022/05/30 04:25:56;;;;;;;9.83;4.90;;;;;;;13.38;100.00;100839.78;1749388;81;21003;-44
2022/05/30 04:28:25;;;;;;;8.28;4.53;;;;;;;13.59;100.00;100837.59;1749444;82;20881;-44
2022/05/30 04:30:54;;;;;;;12.55;5.08;;;;;;;13.86;100.00;100828.67;1746437;82;21066;-44
2022/05/30 04:33:22;;;;;;;10.80;5.90;;;;;;;14.15;100.00;100817.92;1749327;82;20976;-44
2022/05/30 04:35:49;;;;;;;10.88;5.50;;;;;;;14.33;100.00;100820.02;1749458;82;20932;-45
2022/05/30 04:38:16;;;;;;;12.10;6.05;;;;;;;14.61;100.00;100814.44;1749488;82;20992;-44
2022/05/30 04:40:48;;;;;;;12.05;5.08;;;;;;;14.94;98.58;100820.89;1744527;81;20873;-44
2022/05/30 04:43:20;;;;;;;13.00;5.53;;;;;;;15.21;95.14;100822.22;1746730;82;21635;-42
2022/05/30 04:46:16;;;;;;;14.47;6.40;;;;;;;15.35;94.15;100819.16;1746644;82;20857;-44
2022/05/30 04:48:48;;;;;;;15.18;5.92;;;;;;;15.45;90.29;100815.34;1746844;81;21011;-44
2022/05/30 04:51:15;;;;;;;18.90;5.45;;;;;;;15.37;90.00;100825.19;1746719;82;21415;-44
2022/05/30 04:53:42;;;;;;;13.13;5.62;;;;;;;15.30;90.10;100822.38;1746712;82;20849;-44
2022/05/30 04:56:49;;;;;;;15.18;4.95;;;;;;;15.34;89.52;100819.60;1816224;79;22308;-43
2022/05/30 04:59:18;;;;;;;10.80;5.00;;;;;;;15.25;90.47;100822.95;1788049;80;21046;-44
2022/05/30 05:01:46;;;;;;;8.85;6.12;;;;;;;15.27;91.09;100827.23;1789228;80;22204;-44
2022/05/30 05:04:15;;;;;;;10.85;5.72;;;;;;;15.36;89.47;100822.17;1789155;80;20947;-43
2022/05/30 05:06:45;;;;;;;14.30;5.05;;;;;;;15.30;89.72;100813.25;1789419;80;21484;-44
2022/05/30 05:09:32;;;;;;;9.05;5.08;;;;;;;15.31;89.95;100813.66;1789340;80;21501;-43
2022/05/30 05:12:20;;;;;;;9.63;5.10;;;;;;;15.31;89.72;100811.05;1764325;80;20853;-44
2022/05/30 05:14:50;;;;;;;7.97;5.10;;;;;;;15.27;89.10;100808.98;1788966;80;21186;-44
2022/05/30 05:17:29;;;;;;;9.58;5.40;;;;;;;15.23;89.33;100816.03;1705598;80;21564;-44
2022/05/30 05:19:57;;;;;;;11.38;5.00;;;;;;;15.25;90.50;100806.87;1789348;80;20940;-44
2022/05/30 05:22:23;;;;;;;9.03;5.33;;;;;;;15.35;90.82;100806.13;1789259;80;20936;-43
2022/05/30 05:24:51;;;;;;;9.95;5.62;;;;;;;15.51;90.72;100803.86;1789121;80;20919;-44
2022/05/30 05:27:18;;;;;;;8.45;5.45;;;;;;;15.70;89.24;100804.55;1789230;80;21125;-44
2022/05/30 05:29:47;;;;;;;9.15;5.95;;;;;;;15.89;88.24;100799.56;1789137;80;20869;-44
2022/05/30 05:32:15;;;;;;;19.05;6.62;;;;;;;16.18;88.44;100804.19;1769371;80;21545;-44
2022/05/30 05:34:42;;;;;;;14.70;6.65;;;;;;;16.47;86.47;100812.70;1789222;80;21003;-44
2022/05/30 05:37:09;;;;;;;17.40;6.80;;;;;;;16.79;85.81;100810.61;1789319;79;20933;-44
2022/05/30 05:39:38;;;;;;;16.55;6.90;;;;;;;17.01;82.50;100818.95;1788468;80;21268;-44
2022/05/30 05:42:09;;;;;;;12.82;7.40;;;;;;;17.15;80.81;100819.27;1788844;79;20920;-44
2022/05/30 05:44:36;;;;;;;12.33;7.10;;;;;;;17.24;80.01;100830.66;1789366;80;20869;-44
2022/05/30 05:47:05;;;;;;;14.98;6.45;;;;;;;17.33;79.73;100828.12;1789170;80;20861;-44
2022/05/30 05:49:32;;;;;;;14.90;7.25;;;;;;;17.57;79.61;100829.81;1789349;80;20947;-44
2022/05/30 05:52:00;;;;;;;12.65;6.47;;;;;;;17.89;79.67;100828.42;1789163;80;21161;-44
2022/05/30 05:54:27;;;;;;;14.13;7.05;;;;;;;18.30;78.82;100824.91;1789256;80;21398;-44
2022/05/30 05:56:56;;;;;;;16.95;7.22;;;;;;;18.62;77.61;100819.99;1776656;80;20924;-44
2022/05/30 05:59:24;;;;;;;13.32;7.55;;;;;;;19.00;75.61;100819.13;1774222;80;20983;-44
2022/05/30 06:01:51;;;;;;;14.15;7.12;;;;;;;19.22;72.32;100825.48;1775640;80;21015;-44
2022/05/30 06:04:19;;;;;;;21.35;7.97;;;;;;;19.32;72.87;100815.39;1775685;80;21017;-44
2022/05/30 06:06:48;;;;;;;18.37;7.67;;;;;;;19.53;72.81;100815.25;1774151;80;21403;-44
2022/05/30 06:09:16;;;;;;;21.35;8.38;;;;;;;19.67;71.27;100812.75;1774445;80;20885;-44
2022/05/30 06:11:48;;;;;;;28.32;8.53;;;;;;;19.74;69.51;100810.66;1768204;80;20932;-44
2022/05/30 06:14:15;;;;;;;23.85;8.30;;;;;;;19.79;70.48;100822.26;1775107;80;21019;-44
2022/05/30 06:16:44;;;;;;;33.65;8.30;;;;;;;19.96;70.31;100829.29;1764152;80;21193;-44
2022/05/30 06:19:13;;;;;;;16.80;7.42;;;;;;;20.12;68.55;100829.81;1774044;80;20902;-44
2022/05/30 06:21:40;;;;;;;16.57;7.80;;;;;;;20.19;68.32;100829.86;1775156;80;20980;-44
2022/05/30 06:24:10;;;;;;;15.30;7.62;;;;;;;20.12;67.19;100828.02;1775027;80;20975;-43
2022/05/30 06:26:39;;;;;;;16.20;7.80;;;;;;;20.02;68.73;100839.95;1736659;80;21019;-43
2022/05/30 06:29:08;;;;;;;20.02;7.47;;;;;;;20.00;69.72;100828.67;1771081;80;21166;-44
2022/05/30 06:31:36;;;;;;;20.08;7.72;;;;;;;20.16;69.66;100826.92;1774716;80;20933;-44
2022/05/30 06:34:03;;;;;;;19.23;7.62;;;;;;;20.41;70.06;100824.77;1775212;80;20932;-44
2022/05/30 06:36:32;;;;;;;19.12;8.55;;;;;;;20.55;68.79;100826.17;1774688;80;21491;-44
2022/05/30 06:38:59;;;;;;;20.77;7.67;;;;;;;20.62;67.09;100828.86;1775230;80;20888;-44
2022/05/30 06:41:34;;;;;;;17.57;8.30;;;;;;;20.68;67.28;100835.09;1775096;80;21251;-44
2022/05/30 06:44:06;;;;;;;17.70;7.75;;;;;;;20.75;66.03;100830.35;1774019;80;20893;-44
2022/05/30 06:46:44;;;;;;;18.35;8.20;;;;;;;20.83;66.53;100834.36;1702286;84;21023;-44
2022/05/30 06:49:29;;;;;;;22.17;7.97;;;;;;;20.88;65.48;100842.84;1775353;80;20913;-44
2022/05/30 06:51:58;;;;;;;20.62;8.13;;;;;;;20.90;64.68;100844.46;1774450;80;20967;-44
2022/05/30 06:54:26;;;;;;;24.82;8.23;;;;;;;20.99;65.40;100829.08;1774898;80;21258;-44
2022/05/30 06:59:40;;;;;;;18.05;8.10;;;;;;;21.30;65.47;100829.50;1780952;80;20916;-45
2022/05/30 07:02:09;;;;;;;19.30;7.67;;;;;;;21.37;62.95;100827.37;1780897;80;20888;-44
2022/05/30 07:04:37;;;;;;;28.38;8.50;;;;;;;21.36;64.24;100817.77;1698202;80;20912;-44
2022/05/30 07:07:22;;;;;;;20.05;8.20;;;;;;;21.43;64.21;100815.16;1780994;80;21293;-44
2022/05/30 07:10:04;;;;;;;31.27;9.75;;;;;;;21.51;63.30;100818.66;1748647;80;20924;-44
2022/05/30 07:12:33;;;;;;;24.72;9.28;;;;;;;21.53;63.88;100821.56;1779492;80;20928;-44
2022/05/30 07:15:01;;;;;;;21.25;8.98;;;;;;;21.45;62.09;100821.62;1780872;80;20896;-44
2022/05/30 07:17:29;;;;;;;23.05;8.20;;;;;;;21.43;62.95;100825.69;1780812;80;20889;-44
2022/05/30 07:19:57;;;;;;;23.90;8.65;;;;;;;21.59;63.09;100817.72;1780939;80;21241;-45
2022/05/30 07:22:26;;;;;;;18.90;8.18;;;;;;;21.61;62.34;100823.75;1780307;80;20925;-45
2022/05/30 07:25:12;;;;;;;25.45;8.35;;;;;;;21.71;61.39;100816.18;1781136;80;20984;-44
2022/05/30 07:27:57;;;;;;;18.55;8.63;;;;;;;21.91;62.87;100828.14;1780996;80;21493;-44
2022/05/30 07:30:43;;;;;;;19.37;8.60;;;;;;;22.17;62.36;100824.38;1780951;80;20945;-44
2022/05/30 07:33:28;;;;;;;15.85;7.22;;;;;;;22.33;60.69;100827.40;1781118;80;21172;-43
2022/05/30 07:36:17;;;;;;;18.98;8.25;;;;;;;22.47;60.25;100825.25;1781059;80;20936;-44
2022/05/30 07:38:49;;;;;;;22.40;7.78;;;;;;;22.57;60.72;100830.30;1779026;80;21616;-43
2022/05/30 07:41:39;;;;;;;20.33;9.20;;;;;;;22.63;57.57;100822.02;1780961;80;20987;-44
2022/05/30 07:44:10;;;;;;;22.22;8.30;;;;;;;22.63;58.13;100825.98;1779903;80;20889;-43
2022/05/30 07:46:47;;;;;;;20.50;8.50;;;;;;;22.62;58.06;100824.29;1780056;80;21072;-44
2022/05/30 07:49:16;;;;;;;23.67;8.23;;;;;;;22.62;59.43;100823.42;1756850;80;20916;-44
2022/05/30 07:51:54;;;;;;;17.52;7.67;;;;;;;22.67;59.09;100818.24;1753470;80;20980;-44
2022/05/30 07:54:23;;;;;;;16.05;7.50;;;;;;;22.68;58.21;100822.57;1778890;80;20948;-44
2022/05/30 07:56:56;;;;;;;17.27;7.25;;;;;;;22.77;59.45;100815.86;1776432;80;21023;-44
2022/05/30 07:59:23;;;;;;;17.87;7.17;;;;;;;22.82;58.29;100813.77;1775113;80;22059;-44
2022/05/30 08:01:51;;;;;;;18.95;7.00;;;;;;;22.88;59.24;100807.71;1774688;80;21020;-44
2022/05/30 08:04:18;;;;;;;19.80;7.30;;;;;;;23.24;59.83;100807.55;1775107;80;21573;-44
2022/05/30 08:06:45;;;;;;;18.02;8.18;;;;;;;23.64;57.49;100798.78;1774985;80;21517;-44
2022/05/30 08:09:25;;;;;;;16.35;7.33;;;;;;;23.99;56.74;100800.77;1742265;80;21458;-44
2022/05/30 08:11:59;;;;;;;17.70;7.12;;;;;;;24.39;55.54;100787.41;1774816;80;21061;-44
2022/05/30 08:14:45;;;;;;;15.85;7.12;;;;;;;24.76;55.74;100784.39;1775057;80;21040;-44
2022/05/30 08:17:12;;;;;;;14.85;6.87;;;;;;;25.03;54.21;100776.68;1774950;80;21027;-44
2022/05/30 08:19:40;;;;;;;15.83;7.08;;;;;;;25.21;53.94;100775.30;1775117;80;20917;-44
2022/05/30 08:22:09;;;;;;;11.35;6.12;;;;;;;25.39;53.29;100770.41;1774864;80;20838;-44
2022/05/30 08:24:42;;;;;;;10.88;6.17;;;;;;;25.45;52.73;100767.77;1775010;80;21251;-44
2022/05/30 08:27:11;;;;;;;19.45;6.58;;;;;;;25.51;52.41;100762.03;1773888;80;20880;-44
2022/05/30 08:29:42;;;;;;;12.63;6.30;;;;;;;25.61;52.21;100766.61;1774658;80;21019;-44
2022/05/30 08:32:10;;;;;;;14.80;6.72;;;;;;;25.69;53.77;100765.55;1775102;80;20901;-44
2022/05/30 08:34:55;;;;;;;16.07;5.85;;;;;;;25.76;52.72;100762.77;1756819;80;21522;-44
2022/05/30 08:37:30;;;;;;;14.00;6.25;;;;;;;25.74;52.24;100751.91;1775104;80;21261;-44
2022/05/30 08:42:39;;;;;;;11.75;6.03;;;;;;;25.48;52.99;100755.64;1775067;80;20857;-44
2022/05/30 08:45:21;;;;;;;10.70;5.53;;;;;;;25.29;53.66;100752.68;1773635;80;20881;-44
2022/05/30 08:47:58;;;;;;;14.35;6.58;;;;;;;25.13;52.79;100751.68;1773407;80;20956;-44
2022/05/30 08:50:44;;;;;;;14.28;6.03;;;;;;;25.17;53.46;100755.31;1774993;80;21257;-44
2022/05/30 08:53:35;;;;;;;15.95;6.20;;;;;;;25.17;55.09;100751.34;1775085;80;20929;-44
2022/05/30 08:56:23;;;;;;;13.32;6.58;;;;;;;25.07;54.07;100751.66;1775780;80;20999;-44
2022/05/30 08:59:32;;;;;;;9.23;5.72;;;;;;;25.07;55.27;100759.13;1780734;80;20980;-44
2022/05/30 09:02:24;;;;;;;14.93;5.75;;;;;;;25.23;54.80;100751.33;1779979;80;20976;-44
2022/05/30 09:05:13;;;;;;;13.53;6.42;;;;;;;25.36;54.92;100755.22;1779645;80;20998;-44
2022/05/30 09:07:46;;;;;;;11.03;5.50;;;;;;;25.25;53.11;100763.52;1780111;80;21526;-45
2022/05/30 09:10:28;;;;;;;11.33;6.15;;;;;;;25.03;53.88;100760.80;1780718;80;20999;-44
2022/05/30 09:13:06;;;;;;;13.40;5.95;;;;;;;24.82;55.75;100757.46;1780697;80;21552;-44
2022/05/30 09:15:45;;;;;;;15.13;5.95;;;;;;;24.75;54.52;100760.20;1740419;80;21039;-44
2022/05/30 09:18:27;;;;;;;15.10;6.22;;;;;;;24.69;55.39;100756.17;1780806;80;21858;-44
2022/05/30 09:20:54;;;;;;;17.02;6.05;;;;;;;24.88;55.48;100767.59;1780682;80;20900;-44
2022/05/30 09:23:24;;;;;;;16.85;5.87;;;;;;;25.02;54.23;100767.05;1780743;80;20897;-44
2022/05/30 09:25:55;;;;;;;14.43;5.53;;;;;;;25.11;54.61;100767.67;1780785;80;20857;-44
2022/05/30 09:28:41;;;;;;;14.55;6.00;;;;;;;25.31;54.73;100764.86;1780509;80;20909;-45
2022/05/30 09:31:48;;;;;;;10.10;5.95;;;;;;;25.31;53.77;100770.16;1700259;84;21166;-43
2022/05/30 09:34:45;;;;;;;11.70;6.00;;;;;;;25.11;55.25;100765.02;1771383;80;20897;-43
2022/05/30 09:37:32;;;;;;;11.75;5.87;;;;;;;25.13;54.92;100760.45;1747935;80;21510;-44
2022/05/30 09:40:11;;;;;;;13.83;5.33;;;;;;;25.24;55.55;100757.85;1780807;80;20884;-45
2022/05/30 09:42:49;;;;;;;11.08;5.12;;;;;;;25.40;54.30;100755.37;1780247;80;20913;-45
2022/05/30 09:45:26;;;;;;;10.55;4.58;;;;;;;25.56;53.87;100757.70;1780895;80;21275;-45
2022/05/30 09:48:14;;;;;;;12.63;5.10;;;;;;;25.85;53.64;100749.75;1780872;80;21043;-44
2022/05/30 09:50:46;;;;;;;9.45;4.45;;;;;;;26.19;51.39;100751.92;1772995;80;21056;-43
2022/05/30 09:53:13;;;;;;;11.28;4.40;;;;;;;26.20;48.76;100753.61;1780843;80;21403;-43
2022/05/30 09:55:49;;;;;;;9.80;4.53;;;;;;;26.15;50.88;100758.91;1780745;80;20976;-44
2022/05/30 09:58:17;;;;;;;7.25;4.95;;;;;;;26.14;51.27;100758.52;1726761;81;21724;-44
2022/05/30 10:00:55;;;;;;;10.03;4.65;;;;;;;26.20;51.79;100758.91;1720518;81;20935;-44
2022/05/30 10:03:30;;;;;;;10.38;4.72;;;;;;;26.51;50.72;100759.58;1754960;81;21012;-44
2022/05/30 10:06:21;;;;;;;9.53;4.92;;;;;;;26.79;49.10;100757.30;1751780;81;21418;-44
2022/05/30 10:08:51;;;;;;;7.40;4.50;;;;;;;27.00;50.59;100760.01;1754913;81;20872;-44
2022/05/30 10:11:33;;;;;;;12.07;4.65;;;;;;;27.32;47.96;100766.23;1754524;81;21073;-44
2022/05/30 10:14:23;;;;;;;7.25;4.25;;;;;;;27.40;46.71;100762.44;1754713;81;20997;-44
2022/05/30 10:16:56;;;;;;;4.70;4.30;;;;;;;27.36;47.06;100763.20;1747637;81;21026;-44
2022/05/30 10:19:29;;;;;;;10.50;3.80;;;;;;;27.53;48.79;100763.11;1754873;81;20936;-44
2022/05/30 10:29:24;;;;;;;10.38;4.70;;;;;;;27.46;46.15;100774.36;1754617;81;20833;-44
2022/05/30 10:32:07;;;;;;;6.65;5.00;;;;;;;27.47;45.47;100778.70;1750424;81;21533;-44
2022/05/30 10:34:51;;;;;;;10.20;4.70;;;;;;;27.19;44.86;100773.08;1754698;81;20912;-44
2022/05/30 10:37:48;;;;;;;9.83;4.42;;;;;;;26.94;47.55;100769.82;1754572;81;20920;-44
2022/05/30 10:40:22;;;;;;;13.30;5.00;;;;;;;27.03;45.83;100765.56;1754508;79;21261;-44
2022/05/30 10:43:33;;;;;;;6.23;4.80;;;;;;;27.18;45.71;100762.95;1755061;81;20987;-44
2022/05/30 10:46:08;;;;;;;9.10;4.37;;;;;;;27.12;44.14;100760.80;1754675;81;20972;-44
2022/05/30 10:48:39;;;;;;;12.05;4.72;;;;;;;26.94;45.29;100758.73;1754716;81;20897;-44
2022/05/30 10:51:17;;;;;;;9.90;4.45;;;;;;;26.91;44.40;100755.01;1754945;81;21470;-44
2022/05/30 10:54:14;;;;;;;11.53;4.30;;;;;;;26.91;44.60;100753.68;1754768;81;21249;-43
2022/05/30 10:56:50;;;;;;;11.85;5.60;;;;;;;26.92;45.84;100751.84;1759462;80;20921;-44
2022/05/30 10:59:31;;;;;;;9.15;4.80;;;;;;;27.11;45.62;100747.16;1754938;80;20984;-44
2022/05/30 11:02:05;;;;;;;10.58;4.97;;;;;;;27.13;44.43;100749.19;1783471;79;20932;-44
2022/05/30 11:04:51;;;;;;;6.85;4.65;;;;;;;27.01;45.71;100744.93;1784304;79;20909;-44
2022/05/30 11:07:44;;;;;;;13.22;4.85;;;;;;;26.81;46.07;100744.75;1783630;80;22016;-44
2022/05/30 11:10:36;;;;;;;7.60;4.40;;;;;;;26.66;46.81;100744.20;1783734;80;20927;-44
2022/05/30 11:13:44;;;;;;;10.70;5.35;;;;;;;26.71;47.72;100741.18;1783589;80;20920;-44
2022/05/30 11:16:42;;;;;;;9.58;5.50;;;;;;;26.78;47.00;100742.34;1781410;80;20991;-44
2022/05/30 11:20:06;;;;;;;10.95;4.85;;;;;;;26.67;46.53;100741.44;1783645;80;21006;-44
2022/05/30 11:22:52;;;;;;;5.75;4.87;;;;;;;26.54;47.75;100743.40;1783826;80;21171;-44
2022/05/30 11:25:43;;;;;;;11.10;5.37;;;;;;;26.44;46.88;100742.48;1783459;80;20932;-44
2022/05/30 11:28:44;;;;;;;8.10;5.00;;;;;;;26.20;47.24;100744.83;1782605;79;20916;-44
2022/05/30 11:31:22;;;;;;;6.97;4.97;;;;;;;26.05;47.57;100742.39;1783542;80;20991;-44
2022/05/30 11:34:08;;;;;;;11.50;5.08;;;;;;;25.89;48.38;100744.56;1783095;80;20928;-44
2022/05/30 11:36:47;;;;;;;;;;;;;;;25.64;49.35;100742.52;1786301;80;21265;-44
2022/05/30 11:39:35;;;;;;;14.60;5.15;;;;;;;25.43;49.00;100733.94;1783583;80;20116;-44
2022/05/30 11:42:40;;;;;;;11.35;5.08;;;;;;;25.31;49.82;100729.09;1783736;79;20929;-44
2022/05/30 11:45:42;;;;;;;13.40;4.60;;;;;;;25.34;50.07;100723.56;1783843;80;20968;-44
2022/05/30 11:48:27;;;;;;;11.03;5.30;;;;;;;25.36;51.12;100724.75;1783477;80;20872;-44
2022/05/30 11:51:08;;;;;;;15.80;5.65;;;;;;;25.37;50.10;100722.00;1783376;80;21984;-44
2022/05/30 11:54:04;;;;;;;15.40;5.42;;;;;;;25.30;50.78;100718.61;1783628;80;20991;-44
2022/05/30 11:56:59;;;;;;;13.95;5.70;;;;;;;25.17;51.84;100723.53;1783197;79;20908;-44
2022/05/30 11:59:59;;;;;;;12.28;6.20;;;;;;;25.09;53.05;100718.82;1783290;80;21399;-44
2022/05/30 12:02:36;;;;;;;15.60;6.53;;;;;;;24.85;52.51;100718.85;1783729;80;20960;-44
2022/05/30 12:05:37;;;;;;;11.38;6.22;;;;;;;24.62;54.03;100722.69;1766361;79;21110;-44
2022/05/30 12:08:35;;;;;;;14.45;5.85;;;;;;;24.48;55.76;100720.23;1783571;79;20944;-44
2022/05/30 12:11:18;;;;;;;18.73;6.35;;;;;;;24.28;56.53;100734.43;1783548;80;21442;-44